Rechercher aéroport 
image banner adimage banner adimage banner ad
image banner ad

KWJF - General Wm J Fox Airfield

Situé à Lancaster, United States

ICAO - WJF, IATA - WJF

Données fournies par Airmate  

Information générale

Coordonnées: N34°44'28" W118°13'7"
Élévation : 2351 feet MSL.
Variation magnétique : 15° East
Voir autres Aéroports à California

Données opérationnelles

Special qualification required
Heure actuelle UTC:
Heure actuelle locale:
Météo
METAR: KWJF 262156Z VRB05KT 10SM OVC110 31/13 A2998 RMK AO2 SLP129 T03110133
TAF: KWJF 261740Z 2618/2718 31004KT P6SM VCSH BKN120 FM262000 24007KT P6SM VCTS SCT050CB OVC080 FM270100 23010KT P6SM OVC100
Voir NOTAMs / SUP AIP / TFR affectant cet aéroport [VIEW]
Fréquences de communication: [VIEW]

Pistes:

Identifiant RWYQFULongueur (ft)Largeur (ft)SurfaceLDA (ft)
0672°7201150ASPH
24252°7201150ASPH

Coordonnées de l'aéroport

Adresse: Lancaster United States

Autres services d'aviation

Écoles de pilotage

Barnes Aviation

Barnes Aviation

Vue satellite de KWJF